M I D A S
Marine Information and Data Acquisition System
Tripno 2035 of the Zeeleeuw from 2011-01-20 09:15:52 to 2011-01-20 16:41:53
Back to CruiseResearch ActivitiesStationsMapUnderway DataData graphs

EquipmentUnitsComment
TimeDGPSUTC
LatitudeDGPSDM.mWGS84
LongitudeDGPSDM.mWGS84
HeadingGyrodeg 
SOGDGPSknotsSpeed over ground
COGDGPSdegCourse over ground
DepthEcho soundermeters200 kHz
Missing or incorrect values are displayed as -999
Navigation data collected by the RV Zeeleeuw from 2011-01-20 09:16:14 to 2011-01-20 16:46:21
Time Latitude Longitude Heading SOG COG Depth
2011-01-20 09:17:24 51°13.677 2°55.883 103.9 4.1 287 -999
2011-01-20 09:18:24 51°13.691 2°55.786 91.5 3.3 276 4.9
2011-01-20 09:19:24 51°13.691 2°55.736 67.1 0.3 325 -999
2011-01-20 09:20:24 51°13.7 2°55.739 29.4 0.5 260 -999
2011-01-20 09:21:23 51°13.693 2°55.721 354.7 1.8 342 -999
2011-01-20 09:22:22 51°13.779 2°55.662 336.2 8.2 337 10.4
2011-01-20 09:23:21 51°13.916 2°55.567 336.2 9.5 336 -999
2011-01-20 09:24:24 51°14.069 2°55.458 335.3 9.6 336 -999
2011-01-20 09:25:23 51°14.211 2°55.342 329.9 9.9 329 10.3
2011-01-20 09:26:22 51°14.352 2°55.203 327.5 10.5 328 10.3
2011-01-20 09:27:22 51°14.508 2°55.041 328.1 11.7 327 11
2011-01-20 09:28:20 51°14.677 2°54.869 338.3 12.5 335 11.3
2011-01-20 09:29:20 51°14.869 2°54.75 349.1 12.1 349 9.5
2011-01-20 09:30:20 51°15.066 2°54.694 343.8 12.1 339 8.7
2011-01-20 09:31:20 51°15.25 2°54.556 339.3 12.4 337 9
2011-01-20 09:32:20 51°15.425 2°54.374 327.8 12.7 326 9.4
2011-01-20 09:33:20 51°15.597 2°54.186 328.7 12.5 325 10.6
2011-01-20 09:34:20 51°15.769 2°53.998 328.5 12.6 325 10.9
2011-01-20 09:35:20 51°15.941 2°53.811 328.9 12.4 325 11.2
2011-01-20 09:36:20 51°16.109 2°53.618 326.7 12.6 323 11.8
2011-01-20 09:37:20 51°16.274 2°53.418 327 12.5 323 11.9
2011-01-20 09:38:20 51°16.44 2°53.222 328.9 12.3 325 12.5
2011-01-20 09:39:20 51°16.607 2°53.039 329.3 12.1 325 11.8
2011-01-20 09:40:20 51°16.776 2°52.87 332.5 12 328 10.4
2011-01-20 09:41:20 51°16.946 2°52.705 334.3 12 330 10
2011-01-20 09:42:20 51°17.122 2°52.548 335.4 11.8 331 10
2011-01-20 09:43:20 51°17.295 2°52.396 335.8 12 332 10.9
2011-01-20 09:44:20 51°17.47 2°52.243 336 11.9 332 11.5
2011-01-20 09:45:20 51°17.645 2°52.085 333.7 12.1 329 11.6
2011-01-20 09:46:20 51°17.818 2°51.927 336.1 11.8 330 10.7
2011-01-20 09:47:20 51°17.994 2°51.779 337.2 11.9 332 10.6
2011-01-20 09:48:20 51°18.17 2°51.627 337.4 12.1 333 11.9
2011-01-20 09:49:20 51°18.346 2°51.47 335.6 12.1 331 12.7
2011-01-20 09:50:20 51°18.519 2°51.308 335.3 12 328 14.6
2011-01-20 09:51:20 51°18.692 2°51.149 336.1 11.9 329 14.9
2011-01-20 09:52:20 51°18.868 2°50.993 339 12.1 333 15.3
2011-01-20 09:53:20 51°19.045 2°50.838 338.4 11.9 331 15.3
2011-01-20 09:54:20 51°19.219 2°50.68 338.5 12 331 14.7
2011-01-20 09:55:20 51°19.401 2°50.542 342.1 12.1 337 13.1
2011-01-20 09:56:20 51°19.579 2°50.405 337.3 12.1 334 12.9
2011-01-20 09:57:20 51°19.759 2°50.261 338.3 12.2 333 14.3
2011-01-20 09:58:20 51°19.937 2°50.11 338 12.1 332 16.5
2011-01-20 09:59:20 51°20.116 2°49.957 338.2 12.1 331 18.5
2011-01-20 10:00:20 51°20.292 2°49.8 337.8 12.2 331 21
2011-01-20 10:01:20 51°20.47 2°49.649 340.8 11.9 333 22.6
2011-01-20 10:02:20 51°20.652 2°49.502 340.4 12.4 333 23.5
2011-01-20 10:03:20 51°20.835 2°49.36 340.2 12.2 333 24.2
2011-01-20 10:04:20 51°21.015 2°49.224 339.8 11.8 333 22.9
2011-01-20 10:05:20 51°21.193 2°49.084 339.6 12.1 334 23.4
2011-01-20 10:06:20 51°21.373 2°48.941 338.3 11.9 332 21.4
2011-01-20 10:07:20 51°21.554 2°48.798 339.7 12.3 336 24.2
2011-01-20 10:08:20 51°21.734 2°48.659 339.6 12.1 335 24.4
2011-01-20 10:09:20 51°21.918 2°48.528 339.3 12.1 335 24.7
2011-01-20 10:10:20 51°22.102 2°48.389 338.5 12.2 335 25.2
2011-01-20 10:11:20 51°22.283 2°48.252 339 12.2 334 22.1
2011-01-20 10:12:20 51°22.459 2°48.11 339.2 11.7 335 18.3
2011-01-20 10:13:20 51°22.634 2°47.972 338.3 11.7 334 18.7
2011-01-20 10:14:20 51°22.808 2°47.833 339.4 11.8 335 19.3
2011-01-20 10:15:20 51°22.987 2°47.693 339.7 12.2 333 20.2
2011-01-20 10:16:20 51°23.17 2°47.553 339.1 12.2 335 21.3
2011-01-20 10:17:20 51°23.354 2°47.418 340.6 12.1 336 23.7
2011-01-20 10:18:20 51°23.534 2°47.28 338.5 11.8 335 23.6
2011-01-20 10:19:20 51°23.717 2°47.143 339.5 12.1 335 26
2011-01-20 10:20:20 51°23.899 2°47.004 339.6 12.2 335 26.3
2011-01-20 10:21:20 51°24.081 2°46.863 338.3 12.2 333 29.6
2011-01-20 10:22:20 51°24.26 2°46.715 339 12.1 334 28.4
2011-01-20 10:23:20 51°24.44 2°46.581 339.8 12.2 334 30.8
2011-01-20 10:24:20 51°24.624 2°46.444 339.8 12.2 334 30.3
2011-01-20 10:25:20 51°24.805 2°46.308 339.1 12.1 336 26.3
2011-01-20 10:26:20 51°24.988 2°46.174 339.8 12 336 27
2011-01-20 10:27:20 51°25.172 2°46.06 348.5 11.8 346 28
2011-01-20 10:28:20 51°25.366 2°45.986 350.3 11.9 348 25.1
2011-01-20 10:29:20 51°25.556 2°45.955 7.6 11.4 8 24.8
2011-01-20 10:30:20 51°25.708 2°46.122 50.9 11.4 54 24.5
2011-01-20 10:31:20 51°25.813 2°46.391 55 12 60 24.4
2011-01-20 10:32:20 51°25.921 2°46.662 55.3 12.1 58 23
2011-01-20 10:33:20 51°26.027 2°46.933 55.2 12 58 25.2
2011-01-20 10:34:20 51°26.129 2°47.206 57.1 12 59 26
2011-01-20 10:35:20 51°26.231 2°47.48 55.2 12.1 58 26.2
2011-01-20 10:36:20 51°26.335 2°47.756 55.7 11.7 58 22.5
2011-01-20 10:37:20 51°26.438 2°48.028 55.5 12.1 59 23.7
2011-01-20 10:38:20 51°26.538 2°48.302 57 12 60 23.5
2011-01-20 10:39:20 51°26.64 2°48.573 53.8 12 56 24.4
2011-01-20 10:40:20 51°26.75 2°48.841 53.8 12.1 59 23.9
2011-01-20 10:41:20 51°26.859 2°49.109 54 12.2 57 24.2
2011-01-20 10:42:20 51°26.969 2°49.381 53.7 12.1 57 24.5
2011-01-20 10:43:20 51°27.078 2°49.649 53.8 12.1 56 23.8
2011-01-20 10:44:20 51°27.185 2°49.922 54 12.1 58 24.1
2011-01-20 10:45:20 51°27.294 2°50.193 55.2 11.8 58 24.4
2011-01-20 10:46:20 51°27.401 2°50.465 53.9 11.8 58 23.7
2011-01-20 10:47:20 51°27.507 2°50.737 55 11.9 59 24.3
2011-01-20 10:48:20 51°27.616 2°51.011 54.4 12.4 58 24.2
2011-01-20 10:49:20 51°27.723 2°51.288 54.7 12.1 57 24
2011-01-20 10:50:20 51°27.829 2°51.563 53.8 12 57 25.2
2011-01-20 10:51:20 51°27.934 2°51.836 53.8 12.2 58 24.8
2011-01-20 10:52:20 51°28.045 2°52.114 54.7 12.4 58 23.8
2011-01-20 10:53:20 51°28.154 2°52.394 55 12.1 59 25.2
2011-01-20 10:54:20 51°28.266 2°52.668 52.5 12.3 56 24.4
2011-01-20 10:55:20 51°28.377 2°52.933 54 11.8 55 25.3
2011-01-20 10:56:20 51°28.477 2°53.202 57.5 11.6 59 26.1
2011-01-20 10:57:20 51°28.578 2°53.473 56.3 12 58 26.5
2011-01-20 10:58:20 51°28.676 2°53.743 57.4 11.6 61 27
2011-01-20 10:59:20 51°28.774 2°54.015 57 11.9 61 26.7
2011-01-20 11:00:20 51°28.876 2°54.289 55.6 12 57 26.5
2011-01-20 11:01:20 51°28.996 2°54.546 50.2 12 53 28.4
2011-01-20 11:02:20 51°29.116 2°54.795 51.8 11.8 52 28.7
2011-01-20 11:03:20 51°29.233 2°55.048 52.1 11.9 53 28.1
2011-01-20 11:04:20 51°29.348 2°55.305 53.2 12 58 28.7
2011-01-20 11:05:20 51°29.45 2°55.578 55.9 12.2 61 30
2011-01-20 11:06:20 51°29.556 2°55.851 56.7 12.1 58 30.1
2011-01-20 11:07:20 51°29.659 2°56.123 56.2 12 58 28.7
2011-01-20 11:08:20 51°29.762 2°56.402 56 12 59 30.4
2011-01-20 11:09:20 51°29.866 2°56.682 55.6 12.4 59 30.6
2011-01-20 11:10:20 51°29.971 2°56.961 56.5 12.2 59 29.2
2011-01-20 11:11:20 51°30.076 2°57.242 56.5 12.3 61 29.7
2011-01-20 11:12:20 51°30.176 2°57.524 56.8 12 62 30.2
2011-01-20 11:13:20 51°30.279 2°57.808 56 12.5 58 30.7
2011-01-20 11:14:20 51°30.385 2°58.096 57.1 12.7 59 30.3
2011-01-20 11:15:20 51°30.491 2°58.389 56.2 12.6 60 29.6
2011-01-20 11:16:20 51°30.599 2°58.684 54.3 12.6 57 30.4
2011-01-20 11:17:20 51°30.711 2°58.975 53.7 12.9 57 30.5
2011-01-20 11:18:20 51°30.822 2°59.265 54.8 12.9 59 30.5
2011-01-20 11:19:20 51°30.936 2°59.554 53.8 12.9 59 30
2011-01-20 11:20:20 51°31.049 2°59.845 53.3 13.1 56 29.3
2011-01-20 11:21:20 51°31.167 3°0.135 53.4 13 56 28.7
2011-01-20 11:22:20 51°31.278 3°0.427 55.3 12.2 60 29.2
2011-01-20 11:23:20 51°31.39 3°0.719 53.5 13 58 29.4
2011-01-20 11:24:20 51°31.513 3°1.006 50.6 13.2 55 28.9
2011-01-20 11:25:20 51°31.636 3°1.289 50.7 12.9 55 29.7
2011-01-20 11:26:20 51°31.761 3°1.576 51 13.2 55 29.5
2011-01-20 11:27:20 51°31.875 3°1.877 56.3 13.3 62 30.1
2011-01-20 11:28:20 51°31.986 3°2.183 54.8 13.3 59 29.6
2011-01-20 11:29:20 51°32.1 3°2.49 56.5 13.3 59 29.7
2011-01-20 11:30:20 51°32.212 3°2.797 54.9 13.3 59 30.6
2011-01-20 11:31:20 51°32.327 3°3.101 55.9 13.2 59 30.5
2011-01-20 11:32:20 51°32.443 3°3.394 48.5 12.8 52 32.2
2011-01-20 11:33:20 51°32.612 3°3.587 13.2 12.3 14 31.9
2011-01-20 11:34:20 51°32.791 3°3.489 318.9 11.5 318 27.3
2011-01-20 11:35:20 51°32.921 3°3.26 312.9 11.7 315 23.6
2011-01-20 11:36:20 51°33.057 3°3.041 312.9 11.4 314 20.2
2011-01-20 11:37:20 51°33.194 3°2.823 314.7 11.7 314 24.5
2011-01-20 11:38:20 51°33.335 3°2.602 313.2 11.9 317 26.3
2011-01-20 11:39:20 51°33.441 3°2.348 281.7 11.6 277 32
2011-01-20 11:40:20 51°33.353 3°2.065 236 12.6 240 33.2
2011-01-20 11:41:20 51°33.244 3°1.785 241 12.2 237 32.5
2011-01-20 11:42:20 51°33.136 3°1.504 238 12.6 238 34.3
2011-01-20 11:43:20 51°33.033 3°1.224 240 11.9 240 34.3
2011-01-20 11:44:20 51°32.93 3°0.943 238.2 12.4 241 35.9
2011-01-20 11:45:20 51°32.82 3°0.67 234.8 12.1 232 35.2
2011-01-20 11:46:20 51°32.7 3°0.407 235.7 12.2 239 34.5
2011-01-20 11:47:20 51°32.576 3°0.148 235.2 11.9 235 35.5
2011-01-20 11:48:20 51°32.457 2°59.885 235.8 12.3 235 35.6
2011-01-20 11:49:20 51°32.337 2°59.626 234.5 12.2 231 36.4
2011-01-20 11:50:20 51°32.226 2°59.354 239 12.3 233 36.3
2011-01-20 11:51:20 51°32.12 2°59.081 238.3 11.7 240 36.6
2011-01-20 11:52:20 51°32.008 2°58.814 233.8 12.5 241 38.4
2011-01-20 11:53:20 51°31.901 2°58.544 237.2 12.6 237 38.3
2011-01-20 11:54:20 51°31.791 2°58.273 238.6 11.9 238 37.8
2011-01-20 11:55:20 51°31.679 2°58.008 235.4 12.4 241 37.1
2011-01-20 11:56:20 51°31.567 2°57.739 238.5 12 234 37.8
2011-01-20 11:57:20 51°31.461 2°57.468 237 12.3 235 38.5
2011-01-20 11:58:20 51°31.349 2°57.205 238.2 11.4 238 36.6
2011-01-20 11:59:20 51°31.249 2°56.942 236.4 11.7 237 34.9
2011-01-20 12:00:20 51°31.152 2°56.674 239.7 11.3 241 35.1
2011-01-20 12:01:20 51°31.057 2°56.407 239.2 11.4 243 35.7
2011-01-20 12:02:20 51°30.956 2°56.144 241.5 11.4 244 37.1
2011-01-20 12:03:20 51°30.858 2°55.877 237.4 11.6 237 40
2011-01-20 12:04:20 51°30.761 2°55.61 241.7 11.4 241 40.6
2011-01-20 12:05:20 51°30.663 2°55.342 240.6 11.4 244 41.5
2011-01-20 12:06:20 51°30.564 2°55.073 239.3 11.8 242 39.2
2011-01-20 12:07:20 51°30.462 2°54.809 239.6 11.8 236 37.2
2011-01-20 12:08:20 51°30.362 2°54.544 240.6 11.8 234 37.6
2011-01-20 12:09:20 51°30.264 2°54.283 239.6 11.1 238 35.4
2011-01-20 12:10:20 51°30.162 2°54.019 239.4 11.4 236 34.5
2011-01-20 12:11:20 51°30.067 2°53.756 237.4 11.4 244 34.9
2011-01-20 12:12:20 51°30.031 2°53.473 277.2 11.2 288 35.1
2011-01-20 12:13:20 51°30.189 2°53.291 327.3 12.3 331 33.7
2011-01-20 12:14:20 51°30.372 2°53.144 327.6 12.3 332 32.1
2011-01-20 12:15:20 51°30.558 2°52.997 328.9 12.6 335 28.7
2011-01-20 12:16:20 51°30.74 2°52.84 323.7 12.3 330 22.9
2011-01-20 12:17:20 51°30.916 2°52.666 322.7 12.4 330 22.2
2011-01-20 12:18:20 51°31.091 2°52.496 323.3 12.3 329 22.7
2011-01-20 12:19:20 51°31.29 2°52.43 4.3 13.1 17 24.4
2011-01-20 12:20:20 51°31.437 2°52.699 54.2 14.1 56 25.6
2011-01-20 12:21:20 51°31.551 2°53.026 62.5 13.8 65 24.9
2011-01-20 12:22:20 51°31.65 2°53.361 63.4 13.8 63 23.9
2011-01-20 12:23:20 51°31.767 2°53.68 57.1 13.9 61 24.5
2011-01-20 12:24:20 51°31.878 2°54.013 61.5 14.3 63 24.5
2011-01-20 12:25:19 51°31.981 2°54.345 61 14 65 24
2011-01-20 12:26:20 51°32.088 2°54.687 62.4 14.2 63 24.8
2011-01-20 12:27:20 51°32.18 2°55.037 68.6 14 69 26
2011-01-20 12:28:20 51°32.264 2°55.385 67.2 14 68 24.3
2011-01-20 12:29:20 51°32.355 2°55.731 61.9 13.9 62 24.1
2011-01-20 12:30:20 51°32.487 2°56.037 50.9 14 54 27.7
2011-01-20 12:31:20 51°32.638 2°56.307 37.5 13.8 39 23.5
2011-01-20 12:32:20 51°32.835 2°56.46 11 11.8 12 26.6
2011-01-20 12:33:20 51°32.999 2°56.397 329.5 9.4 336 28.8
2011-01-20 12:34:20 51°33.056 2°56.239 282.2 6.7 293 28.2
2011-01-20 12:35:20 51°33.106 2°56.138 306.4 3 330 27.9
2011-01-20 12:36:20 51°33.134 2°56.12 315.3 1.6 351 28.7
2011-01-20 12:37:20 51°33.151 2°56.125 315.8 0.8 21 28.9
2011-01-20 12:38:20 51°33.162 2°56.139 313.2 0.8 49 29.5
2011-01-20 12:39:20 51°33.168 2°56.157 309.7 0.8 70 29.7
2011-01-20 12:40:20 51°33.173 2°56.176 302.3 0.9 70 29.3
2011-01-20 12:41:20 51°33.176 2°56.199 291.9 0.8 94 29
2011-01-20 12:42:19 51°33.177 2°56.222 279.8 1.1 67 29.2
2011-01-20 12:43:20 51°33.18 2°56.246 278.9 0.9 85 28.8
2011-01-20 12:44:20 51°33.183 2°56.271 280.8 1.1 69 29.6
2011-01-20 12:45:19 51°33.186 2°56.293 279.6 0.7 93 29.1
2011-01-20 12:46:20 51°33.19 2°56.315 283.2 0.7 75 29.4
2011-01-20 12:47:20 51°33.195 2°56.338 284.9 1 68 29.8
2011-01-20 12:48:20 51°33.199 2°56.361 286 0.9 71 30.5
2011-01-20 12:49:19 51°33.203 2°56.386 286.4 1.1 74 30.6
2011-01-20 12:50:20 51°33.207 2°56.409 285.8 1 67 30.4
2011-01-20 12:51:20 51°33.21 2°56.432 285.1 1 84 30.6
2011-01-20 12:52:20 51°33.212 2°56.455 283.8 0.8 86 29.4
2011-01-20 12:53:20 51°33.216 2°56.476 283.5 0.8 68 29
2011-01-20 12:54:20 51°33.222 2°56.493 283.8 0.8 55 28.9
2011-01-20 12:55:20 51°33.228 2°56.512 285.1 0.9 57 27
2011-01-20 12:56:20 51°33.234 2°56.532 285.6 0.8 62 28.3
2011-01-20 12:57:20 51°33.239 2°56.55 283 0.8 69 28.5
2011-01-20 12:58:20 51°33.244 2°56.57 279.5 0.7 60 29.3
2011-01-20 12:59:20 51°33.249 2°56.588 281.2 0.8 53 29.4
2011-01-20 13:00:20 51°33.255 2°56.606 286.1 0.8 48 29.4
2011-01-20 13:01:20 51°33.262 2°56.622 290.2 1 46 29.7
2011-01-20 13:02:20 51°33.272 2°56.615 276.1 1.6 293 29.9
2011-01-20 13:03:20 51°33.256 2°56.551 228.2 3.8 228 29.9
2011-01-20 13:04:20 51°33.191 2°56.444 225.6 6.4 227 29.7
2011-01-20 13:05:20 51°33.126 2°56.318 227 5.6 232 28.7
2011-01-20 13:06:20 51°33.083 2°56.212 247.2 4.3 254 27.9
2011-01-20 13:07:19 51°33.068 2°56.115 251 2.9 265 28.4
2011-01-20 13:08:20 51°33.07 2°56.066 265 1.3 292 28.4
2011-01-20 13:09:20 51°33.081 2°56.048 265.6 0.5 318 27.8
2011-01-20 13:10:20 51°33.091 2°56.05 268.7 0.8 18 28.2
2011-01-20 13:11:20 51°33.1 2°56.066 283.6 1 59 29.7
2011-01-20 13:12:20 51°33.109 2°56.095 284.8 1.1 75 26.2
2011-01-20 13:13:20 51°33.115 2°56.129 277.2 1.5 73 27.3
2011-01-20 13:14:20 51°33.12 2°56.166 261.1 1.3 80 28.8
2011-01-20 13:15:20 51°33.126 2°56.193 262.7 0.9 80 29.1
2011-01-20 13:16:20 51°33.134 2°56.217 270.9 1 52 28.8
2011-01-20 13:17:20 51°33.14 2°56.24 279.8 1.1 53 28.7
2011-01-20 13:18:20 51°33.147 2°56.263 285.6 1.2 57 28.2
2011-01-20 13:19:20 51°33.153 2°56.288 284.6 1.1 65 28.9
2011-01-20 13:20:20 51°33.159 2°56.31 282.3 1 65 28.6
2011-01-20 13:21:20 51°33.165 2°56.334 280.1 1.1 64 29
2011-01-20 13:22:20 51°33.171 2°56.359 280.9 0.9 71 29.7
2011-01-20 13:23:20 51°33.177 2°56.383 285.1 0.9 72 30.4
2011-01-20 13:24:20 51°33.183 2°56.408 284.4 1 71 30
2011-01-20 13:25:20 51°33.188 2°56.433 282.9 1 71 30.7
2011-01-20 13:26:20 51°33.196 2°56.453 276.2 0.7 30 29.5
2011-01-20 13:27:19 51°33.202 2°56.448 254.2 0.5 288 29.8
2011-01-20 13:28:20 51°33.199 2°56.43 223.9 1.1 226 30
2011-01-20 13:29:20 51°33.178 2°56.401 227.6 1.9 230 30.2
2011-01-20 13:30:20 51°33.159 2°56.355 233.6 2.2 233 29.3
2011-01-20 13:31:20 51°33.135 2°56.305 227.3 2.4 233 28.8
2011-01-20 13:32:19 51°33.107 2°56.261 223.2 2.4 218 28.1
2011-01-20 13:33:20 51°33.078 2°56.215 226 2.5 224 27.7
2011-01-20 13:34:19 51°33.068 2°56.172 250.4 1.5 281 28.5
2011-01-20 13:35:20 51°33.078 2°56.147 277.3 1.3 337 28.3
2011-01-20 13:36:20 51°33.097 2°56.14 294 1.1 2 27.3
2011-01-20 13:37:19 51°33.113 2°56.145 295.2 0.7 27 28.5
2011-01-20 13:38:20 51°33.124 2°56.155 291.6 0.8 30 28.6
2011-01-20 13:39:20 51°33.141 2°56.148 294.4 1.8 327 28.9
2011-01-20 13:40:20 51°33.17 2°56.103 295.8 2.6 323 28.9
2011-01-20 13:41:20 51°33.199 2°56.078 306.3 1.6 342 29.5
2011-01-20 13:42:20 51°33.219 2°56.075 306.7 0.9 7 29.4
2011-01-20 13:43:20 51°33.233 2°56.079 303.7 0.9 29 29.7
2011-01-20 13:44:20 51°33.244 2°56.088 297.1 0.8 39 29.5
2011-01-20 13:45:20 51°33.253 2°56.101 292.4 0.7 50 30.5
2011-01-20 13:46:20 51°33.261 2°56.115 288.8 0.6 56 30.4
2011-01-20 13:47:20 51°33.268 2°56.133 280.9 0.9 61 30
2011-01-20 13:48:20 51°33.277 2°56.14 283.9 1.2 325 28.9
2011-01-20 13:49:20 51°33.324 2°56.11 337.5 4.4 357 29.9
2011-01-20 13:50:20 51°33.388 2°56.177 62.6 5.2 64 29.2
2011-01-20 13:51:20 51°33.387 2°56.377 104.7 10.1 104 28.7
2011-01-20 13:52:20 51°33.338 2°56.684 101.2 13.1 93 26.3
2011-01-20 13:53:20 51°33.371 2°57.044 80.5 13.9 79 29
2011-01-20 13:54:20 51°33.423 2°57.407 77.9 13.9 75 28
2011-01-20 13:55:20 51°33.492 2°57.76 72.7 13.9 71 26.2
2011-01-20 13:56:20 51°33.581 2°58.101 65.2 14 64 23.5
2011-01-20 13:57:20 51°33.682 2°58.439 65.3 14 65 24.8
2011-01-20 13:58:20 51°33.784 2°58.777 64.9 14.1 64 23.4
2011-01-20 13:59:20 51°33.883 2°59.112 65.9 13.9 65 20.3
2011-01-20 14:00:20 51°33.983 2°59.446 66.8 13.8 64 22
2011-01-20 14:01:19 51°34.08 2°59.775 66.4 13.8 65 22.1
2011-01-20 14:02:20 51°34.179 3°0.116 65.4 13.9 65 20
2011-01-20 14:03:20 51°34.29 3°0.437 58.6 13.6 54 18.4
2011-01-20 14:04:20 51°34.481 3°0.574 354.6 12.5 352 18.5
2011-01-20 14:05:19 51°34.647 3°0.385 312.7 12.9 320 22.9
2011-01-20 14:06:20 51°34.812 3°0.154 313.3 13 320 28
2011-01-20 14:07:20 51°34.977 2°59.93 313.3 13 319 30.5
2011-01-20 14:08:20 51°35.142 2°59.707 311.9 12.9 316 32.3
2011-01-20 14:09:20 51°35.194 2°59.42 249.6 11 249 31.8
2011-01-20 14:10:19 51°35.114 2°59.147 240.4 11.3 243 28
2011-01-20 14:11:20 51°35.035 2°58.859 241.3 11.5 243 33.3
2011-01-20 14:12:20 51°34.956 2°58.57 241.6 11.9 251 31.9
2011-01-20 14:13:19 51°34.868 2°58.301 234.5 11.6 239 32.2
2011-01-20 14:14:19 51°34.769 2°58.038 236.1 11.1 239 31.8
2011-01-20 14:15:20 51°34.665 2°57.771 234.5 11.8 237 32.4
2011-01-20 14:16:20 51°34.565 2°57.504 236.1 11.4 242 31.5
2011-01-20 14:17:20 51°34.467 2°57.231 236.7 11.6 240 33.1
2011-01-20 14:18:20 51°34.365 2°56.962 237.4 11.5 248 31.2
2011-01-20 14:19:19 51°34.263 2°56.699 235.7 11.9 239 32.5
2011-01-20 14:20:20 51°34.161 2°56.421 237.4 11.7 244 32.6
2011-01-20 14:21:20 51°34.062 2°56.15 238.6 11.4 244 30.9
2011-01-20 14:22:19 51°33.963 2°55.889 234 11.5 245 33
2011-01-20 14:23:19 51°33.86 2°55.628 235.3 11.6 246 31.3
2011-01-20 14:24:20 51°33.76 2°55.355 236.5 11.8 237 31.1
2011-01-20 14:25:20 51°33.656 2°55.091 234.4 11.6 239 29.1
2011-01-20 14:26:20 51°33.556 2°54.823 236.6 11.9 240 29.9
2011-01-20 14:27:20 51°33.453 2°54.555 235.1 11.8 240 29.9
2011-01-20 14:28:19 51°33.356 2°54.293 234.1 12.2 237 29.4
2011-01-20 14:29:20 51°33.253 2°54.029 231.3 11.6 229 27.1
2011-01-20 14:30:19 51°33.153 2°53.773 235.2 11.4 241 29.2
2011-01-20 14:31:19 51°33.054 2°53.51 236 11.1 241 29.4
2011-01-20 14:32:20 51°32.95 2°53.239 235.8 11.6 244 29.4
2011-01-20 14:33:19 51°32.85 2°52.979 234.4 11.8 239 30.9
2011-01-20 14:34:20 51°32.746 2°52.711 233.7 11.7 241 28.6
2011-01-20 14:35:20 51°32.64 2°52.449 233.7 11.7 236 30.5
2011-01-20 14:36:20 51°32.543 2°52.18 234.9 11.9 237 31.2
2011-01-20 14:37:19 51°32.444 2°51.918 232.7 12 238 32.5
2011-01-20 14:38:20 51°32.342 2°51.645 234.5 11.7 238 27.3
2011-01-20 14:39:19 51°32.241 2°51.379 238.2 11.7 240 33.2
2011-01-20 14:40:20 51°32.137 2°51.106 237.4 11.1 235 32.3
2011-01-20 14:41:20 51°32.03 2°50.84 233.1 11.8 236 33.3
2011-01-20 14:42:19 51°31.92 2°50.589 234.1 11.6 243 31.6
2011-01-20 14:43:20 51°31.808 2°50.322 235.1 11.4 232 32.6
2011-01-20 14:44:20 51°31.7 2°50.058 233 11.8 234 31.9
2011-01-20 14:45:20 51°31.588 2°49.799 232.9 11.6 237 31.7
2011-01-20 14:46:19 51°31.48 2°49.546 234.3 11.7 239 27.5
2011-01-20 14:47:20 51°31.368 2°49.292 231.6 11.7 232 29.4
2011-01-20 14:48:19 51°31.266 2°49.034 236.1 11.1 238 32.1
2011-01-20 14:49:20 51°31.151 2°48.772 230.5 11.9 232 28.3
2011-01-20 14:50:19 51°31.077 2°48.502 262.5 11.5 272 28.8
2011-01-20 14:51:19 51°31.018 2°48.226 229.6 11.4 232 29.6
2011-01-20 14:52:20 51°30.86 2°48.042 223.3 11.5 223 31.1
2011-01-20 14:53:20 51°30.736 2°47.806 228.1 11.5 232 29.9
2011-01-20 14:54:20 51°30.611 2°47.566 230.5 11.5 237 29.2
2011-01-20 14:55:20 51°30.503 2°47.304 234.4 12 234 28.2
2011-01-20 14:56:20 51°30.398 2°47.037 233 12.4 234 28.9
2011-01-20 14:57:20 51°30.293 2°46.764 234.7 12 238 27.6
2011-01-20 14:58:20 51°30.181 2°46.506 231.7 11.6 234 28.2
2011-01-20 14:59:19 51°30.077 2°46.244 236.6 11.7 239 27.2
2011-01-20 15:00:20 51°29.981 2°45.964 237.5 11.6 239 29.5
2011-01-20 15:01:20 51°29.882 2°45.693 234.5 12.1 237 30.3
2011-01-20 15:02:20 51°29.781 2°45.426 236.6 11.3 234 30.1
2011-01-20 15:03:20 51°29.68 2°45.153 236.2 11.9 242 30.9
2011-01-20 15:04:20 51°29.581 2°44.884 236.4 11.5 240 32.8
2011-01-20 15:05:20 51°29.484 2°44.611 238.4 12 248 32.1
2011-01-20 15:06:20 51°29.383 2°44.337 233.1 12 243 32.3
2011-01-20 15:07:20 51°29.286 2°44.06 235.9 12.3 236 32.7
2011-01-20 15:08:19 51°29.187 2°43.794 235.5 11.8 242 32.7
2011-01-20 15:09:20 51°29.086 2°43.52 235 12.2 239 31.9
2011-01-20 15:10:20 51°28.985 2°43.251 235.6 11.5 235 31.9
2011-01-20 15:11:20 51°28.886 2°42.979 233 11.9 234 32.1
2011-01-20 15:12:20 51°28.776 2°42.718 231.6 11.5 237 31.7
2011-01-20 15:13:20 51°28.666 2°42.454 232 11.7 237 31.3
2011-01-20 15:14:20 51°28.56 2°42.192 234 11.7 235 34.1
2011-01-20 15:15:19 51°28.452 2°41.935 233.9 11.1 232 34.5
2011-01-20 15:16:20 51°28.339 2°41.664 232.3 11.9 240 29.8
2011-01-20 15:17:19 51°28.237 2°41.406 232.2 11.5 239 32.4
2011-01-20 15:18:20 51°28.13 2°41.137 230.9 12.1 242 30.8
2011-01-20 15:19:20 51°28.025 2°40.874 236.5 11.2 236 31.1
2011-01-20 15:20:20 51°27.918 2°40.615 231.3 11.8 239 32.1
2011-01-20 15:21:20 51°27.775 2°40.421 197.3 11.2 191 29.9
2011-01-20 15:22:19 51°27.587 2°40.463 168.9 12.4 167 34
2011-01-20 15:23:20 51°27.388 2°40.549 167.8 11.5 166 33.9
2011-01-20 15:24:19 51°27.204 2°40.676 156.6 12.1 154 33.1
2011-01-20 15:25:20 51°27.017 2°40.824 157.3 12.2 153 33.1
2011-01-20 15:26:19 51°26.828 2°40.958 159.8 13.1 156 34.2
2011-01-20 15:27:20 51°26.637 2°41.102 156.8 12.5 150 33.5
2011-01-20 15:28:20 51°26.472 2°41.307 143.9 12.3 140 31.6
2011-01-20 15:29:20 51°26.296 2°41.483 150 12.7 147 30.6
2011-01-20 15:30:19 51°26.124 2°41.654 149.7 12.6 153 30
2011-01-20 15:31:20 51°25.945 2°41.837 151.8 12.8 149 30.2
2011-01-20 15:32:20 51°25.769 2°42.012 149.5 12.5 148 29.2
2011-01-20 15:33:19 51°25.595 2°42.187 148.8 12.8 147 25.5
2011-01-20 15:34:20 51°25.418 2°42.366 148.8 12.3 151 26.4
2011-01-20 15:35:19 51°25.246 2°42.543 148 12.4 143 25.3
2011-01-20 15:36:20 51°25.068 2°42.72 147 12.3 147 24.1
2011-01-20 15:37:19 51°24.894 2°42.896 149.2 12.7 143 24.2
2011-01-20 15:38:20 51°24.711 2°43.065 150.9 12.5 149 23.7
2011-01-20 15:39:19 51°24.534 2°43.224 149.1 12.8 150 24.1
2011-01-20 15:40:19 51°24.357 2°43.397 151.1 12.7 153 24.9
2011-01-20 15:41:20 51°24.172 2°43.572 148.6 12.5 153 27.8
2011-01-20 15:42:19 51°23.991 2°43.734 150.4 12.7 154 23.9
2011-01-20 15:43:20 51°23.806 2°43.913 148.2 12.9 147 22.9
2011-01-20 15:44:19 51°23.628 2°44.084 148.9 13.1 149 27.6
2011-01-20 15:45:20 51°23.439 2°44.248 150.2 12.5 153 29
2011-01-20 15:46:19 51°23.257 2°44.414 149.4 13.1 149 29.1
2011-01-20 15:47:20 51°23.07 2°44.577 150.7 12.5 153 28.4
2011-01-20 15:48:20 51°22.885 2°44.745 150.2 12.8 147 26.6
2011-01-20 15:49:19 51°22.705 2°44.906 150.2 12.7 152 27.8
2011-01-20 15:50:20 51°22.518 2°45.073 148.9 12.2 153 27.7
2011-01-20 15:51:19 51°22.338 2°45.242 146.7 12.6 149 25.7
2011-01-20 15:52:19 51°22.157 2°45.402 147.7 12.2 150 23.7
2011-01-20 15:53:19 51°21.976 2°45.561 147.8 12.5 146 23.1
2011-01-20 15:54:20 51°21.788 2°45.72 148 12.2 147 23.9
2011-01-20 15:55:19 51°21.605 2°45.879 147.1 12.9 151 26.6
2011-01-20 15:56:19 51°21.419 2°46.041 150.7 12.9 151 27.4
2011-01-20 15:57:19 51°21.231 2°46.199 148.2 13 150 26
2011-01-20 15:58:19 51°21.045 2°46.358 152.2 13.1 151 25.3
2011-01-20 15:59:20 51°20.855 2°46.521 148 12.5 154 22.6
2011-01-20 16:00:19 51°20.669 2°46.666 154.4 12.7 158 21
2011-01-20 16:01:19 51°20.472 2°46.795 151.2 12.6 153 18.1
2011-01-20 16:02:19 51°20.284 2°46.939 151.8 12.7 156 16.5
2011-01-20 16:03:20 51°20.093 2°47.089 151.2 12.6 151 20.1
2011-01-20 16:04:20 51°19.902 2°47.233 153.4 13.2 156 22.6
2011-01-20 16:05:20 51°19.713 2°47.383 151.1 12.7 158 22.9
2011-01-20 16:06:19 51°19.523 2°47.525 153.8 12.7 154 22.8
2011-01-20 16:07:19 51°19.331 2°47.672 147.6 12.4 155 21.9
2011-01-20 16:08:20 51°19.135 2°47.82 153.4 13.3 156 20.4
2011-01-20 16:09:19 51°18.944 2°47.954 150.7 13 155 18.6
2011-01-20 16:10:19 51°18.751 2°48.097 150.5 12.9 157 15.8
2011-01-20 16:11:19 51°18.556 2°48.219 154.6 12.6 161 13.8
2011-01-20 16:12:19 51°18.366 2°48.352 153.3 12.7 160 12
2011-01-20 16:13:19 51°18.176 2°48.481 151.6 12.6 161 11.6
2011-01-20 16:14:19 51°17.988 2°48.627 146.4 12.7 151 11.1
2011-01-20 16:15:20 51°17.801 2°48.786 150.1 12.1 149 11.4
2011-01-20 16:16:19 51°17.612 2°48.924 152.4 12.7 157 11.5
2011-01-20 16:17:19 51°17.423 2°49.073 149.7 12.6 154 12.5
2011-01-20 16:18:19 51°17.234 2°49.231 150.1 13.1 152 12.6
2011-01-20 16:19:19 51°17.046 2°49.388 148.6 12.8 153 11.7
2011-01-20 16:20:19 51°16.86 2°49.534 148.5 12.3 154 9.9
2011-01-20 16:21:20 51°16.665 2°49.682 150.8 13.1 154 14.8
2011-01-20 16:22:19 51°16.476 2°49.824 150.8 12.5 154 12.2
2011-01-20 16:23:19 51°16.291 2°49.977 148.7 12.5 152 11.6
2011-01-20 16:24:19 51°16.123 2°50.171 133.5 12.6 135 10.9
2011-01-20 16:25:19 51°15.975 2°50.405 128.5 12.3 130 11.2
2011-01-20 16:26:20 51°15.846 2°50.676 118.7 12.6 127 13.6
2011-01-20 16:27:19 51°15.752 2°50.967 114.1 12.7 118 13.7
2011-01-20 16:28:20 51°15.66 2°51.273 109.7 12.4 112 13.4
2011-01-20 16:29:19 51°15.579 2°51.571 108.8 12.6 113 13.1
2011-01-20 16:30:19 51°15.497 2°51.876 107.2 12.6 118 13.1
2011-01-20 16:31:19 51°15.413 2°52.178 110.2 12.4 115 12.5
2011-01-20 16:32:19 51°15.322 2°52.473 111.8 12.4 117 11.9
2011-01-20 16:33:19 51°15.241 2°52.774 106.8 12.2 109 11.6
2011-01-20 16:34:20 51°15.163 2°53.081 105.7 12 109 10.9
2011-01-20 16:35:20 51°15.082 2°53.381 107.5 12.1 113 10.4
2011-01-20 16:36:19 51°15.007 2°53.68 106.1 12.3 114 10.2
2011-01-20 16:37:20 51°14.914 2°53.979 113.1 12.4 118 10
2011-01-20 16:38:19 51°14.813 2°54.257 117.3 12.3 121 10.3
2011-01-20 16:39:20 51°14.701 2°54.538 119 12.2 124 10
2011-01-20 16:40:20 51°14.594 2°54.815 114.5 12.2 123 11.9
2011-01-20 16:41:20 51°14.457 2°55.057 129.5 12.1 141 10.4
2011-01-20 16:42:20 51°14.295 2°55.252 140.6 11.2 143 10.4
2011-01-20 16:43:20 51°14.168 2°55.379 149.7 8.3 154 10.7
2011-01-20 16:44:20 51°14.044 2°55.472 152.5 8.4 155 10.6
2011-01-20 16:45:19 51°13.935 2°55.553 153.4 6.6 156 10.8